createdAt,value
2019-03-17T00:01:12.206Z,6.23
2019-03-17T00:03:42.647Z,5.97
2019-03-17T00:06:13.354Z,6.33
2019-03-17T00:08:43.975Z,6.63
2019-03-17T00:11:14.637Z,5.73
2019-03-17T00:13:45.544Z,6.07
2019-03-17T00:16:16.597Z,6.90
2019-03-17T00:18:47.574Z,6.43
2019-03-17T00:21:19.072Z,6.07
2019-03-17T00:23:49.902Z,5.83
2019-03-17T00:26:20.501Z,6.47
2019-03-17T00:28:51.315Z,5.80
2019-03-17T00:31:24.233Z,5.77
2019-03-17T00:33:54.288Z,4.80
2019-03-17T00:36:25.016Z,4.93
2019-03-17T00:38:55.711Z,4.97
2019-03-17T00:41:26.391Z,5.60
2019-03-17T00:43:57.031Z,4.73
2019-03-17T00:46:29.131Z,4.00
2019-03-17T00:48:59.777Z,3.70
2019-03-17T00:51:30.814Z,4.20
2019-03-17T00:54:01.535Z,4.00
2019-03-17T00:56:32.116Z,4.40
2019-03-17T00:59:03.092Z,4.20
2019-03-17T01:01:33.817Z,4.40
2019-03-17T01:04:04.789Z,4.50
2019-03-17T01:06:35.745Z,4.40
2019-03-17T01:09:07.517Z,4.20
2019-03-17T01:11:38.084Z,4.10
2019-03-17T01:14:09.161Z,4.40
2019-03-17T01:16:40.000Z,4.77
2019-03-17T01:19:10.884Z,4.57
2019-03-17T01:21:41.913Z,4.13
2019-03-17T01:24:12.549Z,3.77
2019-03-17T01:26:43.211Z,4.33
2019-03-17T01:29:13.953Z,3.10
2019-03-17T01:31:44.641Z,2.80
2019-03-17T01:34:15.217Z,2.80
2019-03-17T01:36:46.136Z,2.90
2019-03-17T01:39:16.690Z,3.10
2019-03-17T01:41:47.387Z,3.87
2019-03-17T01:44:17.967Z,2.80
2019-03-17T01:46:48.742Z,2.87
2019-03-17T01:49:19.373Z,3.23
2019-03-17T01:51:51.307Z,4.00
2019-03-17T01:54:21.894Z,3.20
2019-03-17T01:56:52.407Z,3.50
2019-03-17T01:59:23.064Z,2.87
2019-03-17T02:01:53.726Z,3.17
2019-03-17T02:04:24.523Z,3.63
2019-03-17T02:06:55.369Z,3.23
2019-03-17T02:09:25.909Z,3.00
2019-03-17T02:11:56.641Z,2.90
2019-03-17T02:14:27.223Z,3.40
2019-03-17T02:16:57.899Z,3.77
2019-03-17T02:19:28.569Z,3.97
2019-03-17T02:21:59.158Z,3.73
2019-03-17T02:24:30.359Z,3.67
2019-03-17T02:27:00.926Z,2.77
2019-03-17T02:29:31.474Z,3.80
2019-03-17T02:32:02.075Z,3.30
2019-03-17T02:34:32.685Z,3.27
2019-03-17T02:37:03.290Z,3.60
2019-03-17T02:39:34.392Z,4.27
2019-03-17T02:42:04.991Z,3.40
2019-03-17T02:44:35.595Z,3.17
2019-03-17T02:47:06.537Z,3.20
2019-03-17T02:49:37.157Z,3.30
2019-03-17T02:52:07.854Z,3.00
2019-03-17T02:54:38.484Z,3.20
2019-03-17T02:57:09.070Z,3.03
2019-03-17T02:59:39.798Z,4.07
2019-03-17T03:02:10.463Z,3.37
2019-03-17T03:04:41.147Z,2.67
2019-03-17T03:07:11.783Z,2.70
2019-03-17T03:09:42.439Z,2.47
2019-03-17T03:12:13.159Z,2.23
2019-03-17T03:14:43.932Z,3.10
2019-03-17T03:17:14.896Z,3.00
2019-03-17T03:19:45.706Z,2.60
2019-03-17T03:22:16.364Z,3.03
2019-03-17T03:24:48.170Z,2.93
2019-03-17T03:27:18.823Z,2.67
2019-03-17T03:29:49.411Z,2.83
2019-03-17T03:32:20.191Z,2.60
2019-03-17T03:34:50.752Z,2.47
2019-03-17T03:37:21.512Z,2.63
2019-03-17T03:39:52.211Z,2.27
2019-03-17T03:42:22.870Z,2.73
2019-03-17T03:44:53.504Z,2.40
2019-03-17T03:47:24.058Z,2.50
2019-03-17T03:49:57.144Z,2.40
2019-03-17T03:52:27.159Z,2.77
2019-03-17T03:54:57.680Z,2.47
2019-03-17T03:57:28.303Z,2.10
2019-03-17T03:59:58.952Z,2.63
2019-03-17T04:02:29.651Z,2.37
2019-03-17T04:05:00.634Z,1.77
2019-03-17T04:07:31.501Z,2.27
2019-03-17T04:10:02.076Z,2.13
2019-03-17T04:12:32.782Z,2.57
2019-03-17T04:15:03.411Z,2.10
2019-03-17T04:17:33.963Z,1.90
2019-03-17T04:20:05.166Z,1.70
2019-03-17T04:22:35.809Z,2.60
2019-03-17T04:25:06.426Z,2.67
2019-03-17T04:27:36.946Z,2.07
2019-03-17T04:30:07.812Z,2.47
2019-03-17T04:32:38.436Z,2.47
2019-03-17T04:35:09.364Z,3.03
2019-03-17T04:37:39.974Z,2.10
2019-03-17T04:40:11.280Z,2.87
2019-03-17T04:42:42.230Z,2.87
2019-03-17T04:45:13.261Z,2.50
2019-03-17T04:47:43.895Z,2.73
2019-03-17T04:50:14.570Z,2.80
2019-03-17T04:52:45.195Z,2.40
2019-03-17T04:55:15.728Z,2.60
2019-03-17T04:57:46.395Z,1.90
2019-03-17T05:00:17.379Z,2.27
2019-03-17T05:02:48.211Z,1.93
2019-03-17T05:05:18.842Z,1.80
2019-03-17T05:07:49.397Z,2.97
2019-03-17T05:10:22.735Z,2.40
2019-03-17T05:12:52.431Z,2.37
2019-03-17T05:15:23.043Z,2.20
2019-03-17T05:17:53.927Z,3.40
2019-03-17T05:20:24.579Z,2.53
2019-03-17T05:22:56.209Z,2.20
2019-03-17T05:25:26.885Z,2.57
2019-03-17T05:27:57.539Z,2.80
2019-03-17T05:30:28.096Z,2.50
2019-03-17T05:32:58.867Z,2.33
2019-03-17T05:35:29.424Z,1.90
2019-03-17T05:38:00.085Z,2.43
2019-03-17T05:40:30.748Z,2.43
2019-03-17T05:43:01.423Z,2.67
2019-03-17T05:45:31.990Z,2.53
2019-03-17T05:48:02.609Z,2.17
2019-03-17T05:50:33.486Z,2.60
2019-03-17T05:53:04.150Z,2.30
2019-03-17T05:55:34.672Z,2.10
2019-03-17T05:58:05.331Z,2.20
2019-03-17T06:00:36.314Z,2.80
2019-03-17T06:03:06.897Z,2.50
2019-03-17T06:05:37.878Z,2.57
2019-03-17T06:08:08.562Z,2.07
2019-03-17T06:10:39.505Z,1.97
2019-03-17T06:13:12.307Z,2.13
2019-03-17T06:15:42.862Z,2.00
2019-03-17T06:18:14.533Z,1.87
2019-03-17T06:20:45.207Z,2.10
2019-03-17T06:23:15.858Z,2.30
2019-03-17T06:25:46.655Z,1.90
2019-03-17T06:28:17.379Z,1.70
2019-03-17T06:30:48.049Z,1.60
2019-03-17T06:33:18.645Z,1.20
2019-03-17T06:35:49.431Z,1.40
2019-03-17T06:38:20.123Z,1.70
2019-03-17T06:40:51.201Z,1.60
2019-03-17T06:43:21.729Z,1.40
2019-03-17T06:45:52.429Z,1.30
2019-03-17T06:48:23.245Z,1.47
2019-03-17T06:50:54.015Z,1.67
2019-03-17T06:53:24.766Z,1.50
2019-03-17T06:55:55.427Z,1.10
2019-03-17T06:58:26.115Z,1.60
2019-03-17T07:00:56.912Z,1.57
2019-03-17T07:03:27.862Z,1.63
2019-03-17T07:05:58.889Z,1.30
2019-03-17T07:08:29.633Z,1.50
2019-03-17T07:11:00.330Z,1.20
2019-03-17T07:13:32.096Z,1.37
2019-03-17T07:16:02.626Z,1.47
2019-03-17T07:18:33.318Z,0.95
2019-03-17T07:21:03.982Z,1.37
2019-03-17T07:23:34.714Z,1.72
2019-03-17T07:26:05.550Z,1.60
2019-03-17T07:28:37.439Z,1.00
2019-03-17T07:31:08.143Z,1.40
2019-03-17T07:33:39.488Z,1.45
2019-03-17T07:36:10.035Z,1.40
2019-03-17T07:38:40.739Z,1.67
2019-03-17T07:41:11.251Z,1.80
2019-03-17T07:43:41.828Z,1.37
2019-03-17T07:46:12.489Z,1.15
2019-03-17T07:48:43.175Z,1.52
2019-03-17T07:51:13.876Z,1.22
2019-03-17T07:53:44.468Z,1.32
2019-03-17T07:56:15.139Z,1.47
2019-03-17T07:58:45.769Z,1.25
2019-03-17T08:01:16.439Z,1.80
2019-03-17T08:03:48.438Z,1.35
2019-03-17T08:06:19.119Z,1.02
2019-03-17T08:08:49.718Z,1.22
2019-03-17T08:11:20.387Z,1.60
2019-03-17T08:13:51.094Z,1.07
2019-03-17T08:16:21.999Z,14.65
2019-03-17T08:18:52.787Z,1.45
2019-03-17T08:21:23.349Z,1.55
2019-03-17T08:23:54.082Z,1.35
2019-03-17T08:26:24.623Z,1.40
2019-03-17T08:28:55.214Z,1.55
2019-03-17T08:31:26.145Z,1.20
2019-03-17T08:33:56.879Z,1.60
2019-03-17T08:36:27.555Z,1.27
2019-03-17T08:38:58.337Z,1.17
2019-03-17T08:41:29.034Z,1.12
2019-03-17T08:43:59.651Z,1.27
2019-03-17T08:46:30.311Z,1.10
2019-03-17T08:49:00.837Z,1.62
2019-03-17T08:51:31.589Z,1.10
2019-03-17T08:54:03.254Z,9.05
2019-03-17T08:56:33.952Z,1.50
2019-03-17T08:59:04.689Z,1.25
2019-03-17T09:01:35.544Z,1.10
2019-03-17T09:04:06.633Z,1.37
2019-03-17T09:06:37.238Z,1.10
2019-03-17T09:09:08.911Z,1.40
2019-03-17T09:11:39.632Z,1.27
2019-03-17T09:14:10.395Z,1.02
2019-03-17T09:16:41.147Z,1.02
2019-03-17T09:19:11.935Z,1.45
2019-03-17T09:21:42.478Z,0.60
2019-03-17T09:24:17.435Z,1.15
2019-03-17T09:26:46.117Z,1.17
2019-03-17T09:29:16.807Z,1.00
2019-03-17T09:31:47.441Z,1.00
2019-03-17T09:34:18.173Z,0.90
2019-03-17T09:36:48.812Z,1.35
2019-03-17T09:39:19.461Z,1.15
2019-03-17T09:41:50.133Z,1.30
2019-03-17T09:44:20.699Z,1.30
2019-03-17T09:46:51.283Z,1.10
2019-03-17T09:49:21.948Z,1.07
2019-03-17T09:51:52.507Z,1.20
2019-03-17T09:54:23.102Z,1.10
2019-03-17T09:56:53.728Z,1.50
2019-03-17T09:59:24.386Z,0.82
2019-03-17T10:01:55.165Z,1.00
2019-03-17T10:04:25.747Z,0.82
2019-03-17T10:06:56.334Z,1.42
2019-03-17T10:09:26.995Z,0.90
2019-03-17T10:11:57.759Z,0.82
2019-03-17T10:14:28.410Z,0.85
2019-03-17T10:16:58.954Z,1.02
2019-03-17T10:19:29.613Z,0.70
2019-03-17T10:22:00.350Z,0.93
2019-03-17T10:24:32.037Z,0.85
2019-03-17T10:27:02.720Z,0.80
2019-03-17T10:29:33.295Z,0.78
2019-03-17T10:32:04.007Z,1.00
2019-03-17T10:34:34.623Z,0.80
2019-03-17T10:37:05.301Z,0.70
2019-03-17T10:39:35.979Z,0.82
2019-03-17T10:42:06.603Z,0.70
2019-03-17T10:44:37.312Z,1.00
2019-03-17T10:47:07.987Z,0.90
2019-03-17T10:49:38.607Z,0.85
2019-03-17T10:52:09.293Z,0.70
2019-03-17T10:54:39.995Z,0.82
2019-03-17T10:57:11.092Z,1.07
2019-03-17T10:59:41.871Z,3.15
2019-03-17T11:02:12.532Z,1.20
2019-03-17T11:04:44.206Z,1.32
2019-03-17T11:07:14.886Z,0.90
2019-03-17T11:09:46.765Z,0.78
2019-03-17T11:12:17.441Z,1.07
2019-03-17T11:14:48.195Z,0.95
2019-03-17T11:17:18.862Z,1.02
2019-03-17T11:19:49.585Z,1.25
2019-03-17T11:22:20.134Z,0.95
2019-03-17T11:24:50.773Z,1.20
2019-03-17T11:27:21.435Z,0.88
2019-03-17T11:29:52.009Z,1.00
2019-03-17T11:32:22.669Z,0.90
2019-03-17T11:34:53.383Z,1.30
2019-03-17T11:37:24.150Z,1.20
2019-03-17T11:39:54.797Z,1.00
2019-03-17T11:42:25.427Z,1.12
2019-03-17T11:44:56.370Z,1.42
2019-03-17T11:47:27.028Z,3.90
2019-03-17T11:50:09.077Z,1.47
2019-03-17T11:52:39.644Z,1.27
2019-03-17T11:55:10.576Z,1.05
2019-03-17T11:57:41.519Z,1.52
2019-03-17T12:00:13.559Z,1.40
2019-03-17T12:02:44.195Z,1.12
2019-03-17T12:05:14.856Z,1.32
2019-03-17T12:07:45.531Z,1.20
2019-03-17T12:10:16.305Z,1.10
2019-03-17T12:12:47.452Z,1.10
2019-03-17T12:15:18.075Z,1.32
2019-03-17T12:17:48.664Z,1.42
2019-03-17T12:20:20.415Z,1.22
2019-03-17T12:22:50.936Z,1.50
2019-03-17T12:25:21.553Z,1.30
2019-03-17T12:27:52.473Z,1.27
2019-03-17T12:30:23.639Z,1.05
2019-03-17T12:32:54.710Z,1.65
2019-03-17T12:35:25.381Z,1.05
2019-03-17T12:37:56.155Z,1.17
2019-03-17T12:40:26.982Z,1.30
2019-03-17T12:42:57.704Z,1.00
2019-03-17T12:45:28.280Z,1.05
2019-03-17T12:47:59.005Z,1.42
2019-03-17T12:50:29.782Z,1.20
2019-03-17T12:53:00.444Z,2.00
2019-03-17T12:55:31.004Z,1.50
2019-03-17T12:58:01.680Z,2.10
2019-03-17T13:00:32.330Z,2.02
2019-03-17T13:03:02.942Z,1.55
2019-03-17T13:05:33.638Z,2.70
2019-03-17T13:08:04.367Z,1.75
2019-03-17T13:10:35.004Z,1.95
2019-03-17T13:13:05.545Z,1.77
2019-03-17T13:15:36.238Z,1.82
2019-03-17T13:18:06.963Z,1.67
2019-03-17T13:20:38.139Z,2.55
2019-03-17T13:23:08.913Z,1.98
2019-03-17T13:25:39.638Z,2.17
2019-03-17T13:28:10.442Z,1.67
2019-03-17T13:30:41.254Z,1.75
2019-03-17T13:33:11.918Z,1.60
2019-03-17T13:35:42.635Z,2.30
2019-03-17T13:38:13.436Z,2.40
2019-03-17T13:40:44.509Z,2.02
2019-03-17T13:43:15.074Z,2.85
2019-03-17T13:45:46.096Z,2.00
2019-03-17T13:48:16.776Z,1.40
2019-03-17T13:50:47.670Z,1.67
2019-03-17T13:53:18.253Z,1.93
2019-03-17T13:55:49.013Z,2.05
2019-03-17T13:58:19.675Z,2.00
2019-03-17T14:00:50.456Z,2.50
2019-03-17T14:03:21.222Z,2.15
2019-03-17T14:05:51.838Z,1.60
2019-03-17T14:08:22.351Z,2.13
2019-03-17T14:10:53.069Z,2.42
2019-03-17T14:13:23.664Z,1.87
2019-03-17T14:15:54.715Z,2.00
2019-03-17T14:18:25.412Z,2.33
2019-03-17T14:20:56.078Z,2.03
2019-03-17T14:23:26.737Z,1.70
2019-03-17T14:25:57.421Z,1.90
2019-03-17T14:28:28.235Z,2.03
2019-03-17T14:30:59.925Z,1.60
2019-03-17T14:33:30.717Z,1.87
2019-03-17T14:36:01.434Z,1.67
2019-03-17T14:38:32.123Z,1.60
2019-03-17T14:41:02.763Z,2.10
2019-03-17T14:43:33.405Z,1.63
2019-03-17T14:46:04.187Z,1.60
2019-03-17T14:48:34.862Z,1.23
2019-03-17T14:51:06.534Z,1.33
2019-03-17T14:53:37.191Z,1.10
2019-03-17T14:56:07.894Z,0.63
2019-03-17T14:58:38.502Z,1.00
2019-03-17T15:01:09.187Z,0.80
2019-03-17T15:03:39.996Z,0.77
2019-03-17T15:06:10.578Z,1.03
2019-03-17T15:08:41.448Z,0.57
2019-03-17T15:11:12.195Z,1.10
2019-03-17T15:13:42.798Z,0.53
2019-03-17T15:16:13.419Z,0.77
2019-03-17T15:18:44.052Z,0.40
2019-03-17T15:21:14.852Z,0.90
2019-03-17T15:23:45.784Z,0.50
2019-03-17T15:26:16.863Z,0.60
2019-03-17T15:28:48.080Z,1.00
2019-03-17T15:31:18.722Z,1.63
2019-03-17T15:33:49.443Z,0.97
2019-03-17T15:36:20.555Z,0.70
2019-03-17T15:38:51.359Z,1.20
2019-03-17T15:41:21.981Z,0.77
2019-03-17T15:43:52.530Z,0.70
2019-03-17T15:46:23.195Z,0.80
2019-03-17T15:48:53.795Z,0.90
2019-03-17T15:51:26.395Z,1.40
2019-03-17T15:53:57.080Z,0.97
2019-03-17T15:56:27.818Z,1.10
2019-03-17T15:58:58.908Z,1.10
2019-03-17T16:01:29.462Z,0.80
2019-03-17T16:04:00.115Z,0.70
2019-03-17T16:06:31.095Z,0.90
2019-03-17T16:09:01.836Z,0.90
2019-03-17T16:11:33.930Z,1.00
2019-03-17T16:14:05.821Z,0.90
2019-03-17T16:16:36.422Z,0.70
2019-03-17T16:19:06.981Z,1.10
2019-03-17T16:21:37.875Z,0.90
2019-03-17T16:24:08.588Z,1.03
2019-03-17T16:26:39.199Z,0.90
2019-03-17T16:29:09.925Z,1.00
2019-03-17T16:31:42.636Z,0.67
2019-03-17T16:34:13.827Z,0.83
2019-03-17T16:36:44.534Z,1.00
2019-03-17T16:39:16.051Z,0.80
2019-03-17T16:41:46.723Z,1.10
2019-03-17T16:44:17.419Z,1.10
2019-03-17T16:46:49.152Z,1.50
2019-03-17T16:49:19.765Z,1.10
2019-03-17T16:51:50.512Z,0.90
2019-03-17T16:54:21.517Z,1.17
2019-03-17T16:56:52.169Z,0.80
2019-03-17T16:59:22.866Z,1.10
2019-03-17T17:01:53.607Z,1.80
2019-03-17T17:04:24.240Z,1.70
2019-03-17T17:06:54.885Z,5.90
2019-03-17T17:09:25.502Z,1.00
2019-03-17T17:11:57.466Z,0.90
2019-03-17T17:14:28.241Z,1.00
2019-03-17T17:16:58.967Z,1.10
2019-03-17T17:19:29.734Z,1.00
2019-03-17T17:22:00.398Z,1.33
2019-03-17T17:24:31.135Z,0.80
2019-03-17T17:27:01.772Z,1.30
2019-03-17T17:29:32.526Z,1.37
2019-03-17T17:32:03.277Z,1.03
2019-03-17T17:34:34.562Z,1.20
2019-03-17T17:37:05.385Z,1.40
2019-03-17T17:39:36.066Z,1.17
2019-03-17T17:42:09.870Z,2.00
2019-03-17T17:44:39.193Z,1.30
2019-03-17T17:47:09.873Z,1.70
2019-03-17T17:49:40.493Z,1.30
2019-03-17T17:52:11.219Z,1.20
2019-03-17T17:54:41.875Z,1.30
2019-03-17T17:57:12.434Z,1.57
2019-03-17T17:59:43.140Z,2.13
2019-03-17T18:02:13.767Z,1.27
2019-03-17T18:04:44.489Z,0.93
2019-03-17T18:07:15.231Z,1.47
2019-03-17T18:09:45.851Z,1.40
2019-03-17T18:12:21.145Z,1.57
2019-03-17T18:14:48.898Z,1.63
2019-03-17T18:17:19.635Z,1.13
2019-03-17T18:19:50.412Z,1.93
2019-03-17T18:22:21.026Z,1.70
2019-03-17T18:24:51.597Z,2.00
2019-03-17T18:27:22.425Z,2.00
2019-03-17T18:29:53.133Z,1.80
2019-03-17T18:32:23.865Z,1.70
2019-03-17T18:34:54.554Z,1.87
2019-03-17T18:37:25.249Z,2.80
2019-03-17T18:39:55.981Z,2.00
2019-03-17T18:42:32.895Z,1.53
2019-03-17T18:44:59.308Z,1.30
2019-03-17T18:47:30.184Z,2.00
2019-03-17T18:50:01.079Z,1.57
2019-03-17T18:52:33.184Z,1.60
2019-03-17T18:55:03.977Z,1.87
2019-03-17T18:57:37.412Z,1.83
2019-03-17T19:00:09.859Z,1.90
2019-03-17T19:02:40.873Z,1.50
2019-03-17T19:05:11.891Z,1.87
2019-03-17T19:07:42.506Z,1.87
2019-03-17T19:10:13.531Z,2.17
2019-03-17T19:12:45.755Z,1.77
2019-03-17T19:15:16.503Z,1.10
2019-03-17T19:17:48.428Z,1.53
2019-03-17T19:20:19.095Z,1.73
2019-03-17T19:22:49.825Z,1.77
2019-03-17T19:25:20.509Z,1.90
2019-03-17T19:27:51.216Z,1.50
2019-03-17T19:30:22.855Z,2.50
2019-03-17T19:32:53.853Z,1.80
2019-03-17T19:35:25.119Z,1.80
2019-03-17T19:37:55.930Z,1.87
2019-03-17T19:40:26.651Z,1.50
2019-03-17T19:42:59.664Z,2.10
2019-03-17T19:45:30.006Z,1.90
2019-03-17T19:48:00.779Z,2.40
2019-03-17T19:50:31.533Z,1.83
2019-03-17T19:53:02.390Z,2.17
2019-03-17T19:55:33.206Z,2.60
2019-03-17T19:58:04.111Z,3.33
2019-03-17T20:00:34.928Z,2.43
2019-03-17T20:03:05.680Z,1.80
2019-03-17T20:05:36.479Z,2.63
2019-03-17T20:08:07.320Z,2.20
2019-03-17T20:10:38.107Z,1.53
2019-03-17T20:13:11.906Z,2.40
2019-03-17T20:15:41.212Z,1.47
2019-03-17T20:18:11.967Z,2.13
2019-03-17T20:20:42.796Z,2.00
2019-03-17T20:23:13.483Z,1.50
2019-03-17T20:25:44.255Z,2.50
2019-03-17T20:28:14.845Z,1.63
2019-03-17T20:30:45.571Z,1.80
2019-03-17T20:33:16.545Z,1.47
2019-03-17T20:35:47.360Z,1.60
2019-03-17T20:38:18.241Z,1.97
2019-03-17T20:40:50.729Z,1.80
2019-03-17T20:43:34.325Z,1.80
2019-03-17T20:45:54.151Z,1.80
2019-03-17T20:48:25.336Z,2.13
2019-03-17T20:50:59.183Z,1.50
2019-03-17T20:53:29.449Z,1.77
2019-03-17T20:56:00.134Z,2.13
2019-03-17T20:58:30.909Z,1.70
2019-03-17T21:01:01.582Z,2.17
2019-03-17T21:03:32.255Z,2.53
2019-03-17T21:06:03.002Z,2.20
2019-03-17T21:08:33.638Z,1.77
2019-03-17T21:11:04.280Z,1.47
2019-03-17T21:13:46.260Z,1.77
2019-03-17T21:16:07.278Z,2.03
2019-03-17T21:18:37.838Z,2.00
2019-03-17T21:21:08.535Z,2.47
2019-03-17T21:23:39.074Z,2.03
2019-03-17T21:26:09.935Z,2.20
2019-03-17T21:28:40.617Z,2.00
2019-03-17T21:31:12.238Z,2.00
2019-03-17T21:33:42.961Z,2.23
2019-03-17T21:36:13.625Z,2.40
2019-03-17T21:38:45.668Z,2.07
2019-03-17T21:41:16.318Z,2.47
2019-03-17T21:43:58.550Z,2.17
2019-03-17T21:46:19.567Z,2.87
2019-03-17T21:48:50.253Z,2.17
2019-03-17T21:51:20.880Z,2.77
2019-03-17T21:53:51.611Z,2.30
2019-03-17T21:56:22.428Z,2.33
2019-03-17T21:58:53.003Z,3.17
2019-03-17T22:01:24.057Z,2.60
2019-03-17T22:03:54.683Z,2.43
2019-03-17T22:06:25.263Z,2.90
2019-03-17T22:08:55.828Z,2.63
2019-03-17T22:11:27.552Z,3.80
2019-03-17T22:13:58.112Z,2.70
2019-03-17T22:16:29.773Z,2.43
2019-03-17T22:19:00.614Z,3.43
2019-03-17T22:21:31.390Z,2.83
2019-03-17T22:24:02.086Z,2.03
2019-03-17T22:26:32.777Z,2.40
2019-03-17T22:29:04.472Z,2.47
2019-03-17T22:31:35.155Z,2.50
2019-03-17T22:34:08.240Z,2.20
2019-03-17T22:36:38.581Z,2.70
2019-03-17T22:39:11.296Z,2.97
2019-03-17T22:41:41.819Z,1.83
2019-03-17T22:44:23.960Z,2.70
2019-03-17T22:46:45.077Z,2.10
2019-03-17T22:49:15.831Z,2.13
2019-03-17T22:51:46.495Z,2.67
2019-03-17T22:54:17.246Z,2.00
2019-03-17T22:56:48.943Z,2.73
2019-03-17T22:59:19.591Z,3.20
2019-03-17T23:01:50.303Z,1.77
2019-03-17T23:04:22.115Z,2.03
2019-03-17T23:06:53.005Z,2.60
2019-03-17T23:09:23.712Z,2.10
2019-03-17T23:11:54.883Z,1.80
2019-03-17T23:14:36.192Z,1.97
2019-03-17T23:16:57.964Z,1.70
2019-03-17T23:19:28.802Z,1.73
2019-03-17T23:21:59.505Z,2.60
2019-03-17T23:24:30.497Z,1.27
2019-03-17T23:27:01.321Z,2.00
2019-03-17T23:29:32.410Z,1.77
2019-03-17T23:32:03.080Z,1.67
2019-03-17T23:34:34.986Z,1.93
2019-03-17T23:37:05.728Z,1.80
2019-03-17T23:39:36.357Z,1.77
2019-03-17T23:42:06.862Z,1.90
2019-03-17T23:44:48.500Z,1.93
2019-03-17T23:47:11.005Z,1.63
2019-03-17T23:49:41.628Z,1.80
2019-03-17T23:52:12.564Z,1.83
2019-03-17T23:54:43.308Z,1.97
2019-03-17T23:57:13.948Z,2.10
2019-03-17T23:59:44.602Z,1.47
